createdAt,value
2023-01-30T00:01:09.697Z,12.13
2023-01-30T00:03:39.602Z,11.37
2023-01-30T00:06:12.920Z,10.33
2023-01-30T00:08:42.990Z,11.30
2023-01-30T00:11:15.898Z,12.03
2023-01-30T00:13:46.427Z,10.60
2023-01-30T00:16:16.453Z,11.43
2023-01-30T00:18:47.350Z,11.87
2023-01-30T00:21:20.310Z,12.27
2023-01-30T00:23:50.212Z,11.90
2023-01-30T00:26:20.213Z,10.17
2023-01-30T00:28:50.184Z,11.97
2023-01-30T00:31:20.136Z,12.33
2023-01-30T00:33:50.083Z,12.23
2023-01-30T00:36:22.570Z,11.97
2023-01-30T00:38:52.570Z,10.47
2023-01-30T00:41:22.849Z,11.40
2023-01-30T00:44:05.304Z,10.87
2023-01-30T00:46:49.146Z,9.87
2023-01-30T00:49:19.440Z,12.00
2023-01-30T00:51:52.025Z,11.07
2023-01-30T00:54:21.983Z,11.80
2023-01-30T00:56:51.991Z,12.07
2023-01-30T00:59:21.950Z,12.63
2023-01-30T01:01:51.955Z,13.37
2023-01-30T01:04:21.957Z,11.73
2023-01-30T01:06:54.551Z,11.47
2023-01-30T01:09:24.535Z,12.87
2023-01-30T01:11:55.992Z,13.73
2023-01-30T01:14:25.931Z,13.90
2023-01-30T01:16:56.222Z,13.50
2023-01-30T01:19:26.248Z,14.13
2023-01-30T01:21:58.829Z,14.10
2023-01-30T01:24:30.521Z,14.13
2023-01-30T01:27:01.144Z,15.03
2023-01-30T01:29:31.085Z,13.27
2023-01-30T01:32:01.326Z,13.73
2023-01-30T01:34:31.469Z,14.40
2023-01-30T01:37:04.337Z,14.17
2023-01-30T01:39:46.546Z,13.73
2023-01-30T01:42:16.485Z,12.77
2023-01-30T01:45:13.803Z,13.83
2023-01-30T01:47:48.142Z,12.70
2023-01-30T01:50:27.961Z,14.88
2023-01-30T01:53:02.316Z,14.13
2023-01-30T01:55:32.987Z,13.48
2023-01-30T01:58:07.366Z,12.37
2023-01-30T02:00:37.993Z,12.37
2023-01-30T02:03:11.840Z,13.20
2023-01-30T02:05:46.371Z,14.37
2023-01-30T02:10:56.176Z,14.63
2023-01-30T02:13:26.526Z,14.30
2023-01-30T02:16:00.096Z,11.83
2023-01-30T02:18:31.188Z,12.83
2023-01-30T02:21:27.043Z,14.07
2023-01-30T02:24:29.597Z,13.67
2023-01-30T02:27:18.397Z,13.87
2023-01-30T02:30:30.708Z,11.90
2023-01-30T02:33:18.171Z,14.30
2023-01-30T02:35:56.059Z,12.57
2023-01-30T02:38:37.762Z,11.57
2023-01-30T02:41:20.452Z,11.93
2023-01-30T02:44:00.757Z,15.23
2023-01-30T02:46:39.229Z,13.40
2023-01-30T02:49:17.267Z,12.77
2023-01-30T02:51:48.892Z,14.90
2023-01-30T02:54:19.078Z,13.33
2023-01-30T02:56:55.093Z,13.63
2023-01-30T02:59:30.150Z,10.77
2023-01-30T03:02:26.732Z,12.88
2023-01-30T03:05:27.740Z,11.90
2023-01-30T03:08:06.712Z,11.40
2023-01-30T03:10:41.203Z,11.00
2023-01-30T03:13:18.078Z,11.17
2023-01-30T03:15:52.721Z,12.30
2023-01-30T03:18:23.543Z,11.53
2023-01-30T03:20:57.557Z,10.93
2023-01-30T03:23:27.522Z,10.27
2023-01-30T03:25:57.471Z,10.07
2023-01-30T03:28:28.659Z,11.17
2023-01-30T03:30:58.782Z,11.20
2023-01-30T03:33:28.891Z,12.67
2023-01-30T03:36:01.502Z,9.30
2023-01-30T03:38:31.530Z,11.97
2023-01-30T03:41:01.666Z,10.30
2023-01-30T03:43:31.703Z,10.83
2023-01-30T03:46:01.713Z,9.63
2023-01-30T03:48:32.088Z,9.53
2023-01-30T03:51:04.741Z,11.10
2023-01-30T03:53:34.792Z,10.97
2023-01-30T03:56:04.863Z,11.93
2023-01-30T03:58:37.101Z,12.40
2023-01-30T04:01:19.507Z,9.03
2023-01-30T04:03:50.373Z,9.17
2023-01-30T04:06:23.267Z,9.63
2023-01-30T04:08:55.699Z,10.43
2023-01-30T04:11:37.148Z,10.57
2023-01-30T04:14:07.527Z,7.73
2023-01-30T04:16:46.461Z,10.17
2023-01-30T04:19:35.389Z,9.33
2023-01-30T04:22:08.189Z,10.27
2023-01-30T04:24:39.193Z,10.02
2023-01-30T04:27:10.255Z,9.70
2023-01-30T04:29:46.547Z,9.27
2023-01-30T04:32:16.874Z,9.33
2023-01-30T04:34:47.136Z,10.30
2023-01-30T04:37:19.699Z,8.93
2023-01-30T04:39:51.425Z,9.60
2023-01-30T04:42:21.697Z,9.03
2023-01-30T04:45:12.581Z,9.13
2023-01-30T04:47:43.010Z,11.47
2023-01-30T04:50:14.073Z,10.00
2023-01-30T04:52:47.501Z,9.03
2023-01-30T04:55:18.065Z,10.10
2023-01-30T04:57:48.471Z,10.87
2023-01-30T05:00:18.918Z,9.07
2023-01-30T05:02:56.001Z,9.53
2023-01-30T05:05:26.781Z,10.50
2023-01-30T05:07:59.735Z,9.20
2023-01-30T05:10:30.029Z,9.03
2023-01-30T05:13:00.268Z,10.87
2023-01-30T05:15:30.708Z,9.67
2023-01-30T05:18:01.132Z,10.30
2023-01-30T05:20:31.542Z,8.43
2023-01-30T05:23:04.339Z,10.07
2023-01-30T05:25:34.551Z,9.00
2023-01-30T05:28:04.845Z,8.63
2023-01-30T05:30:35.295Z,8.43
2023-01-30T05:33:05.516Z,8.87
2023-01-30T05:35:35.738Z,9.20
2023-01-30T05:38:08.637Z,9.73
2023-01-30T05:40:39.049Z,9.27
2023-01-30T05:43:09.790Z,10.73
2023-01-30T05:45:40.207Z,9.57
2023-01-30T05:48:10.436Z,8.63
2023-01-30T05:50:40.703Z,9.13
2023-01-30T05:53:14.052Z,10.20
2023-01-30T05:55:44.241Z,11.43
2023-01-30T05:58:14.639Z,10.47
2023-01-30T06:00:44.877Z,9.40
2023-01-30T06:03:15.089Z,11.00
2023-01-30T06:05:45.247Z,10.13
2023-01-30T06:08:18.037Z,9.97
2023-01-30T06:10:48.245Z,9.73
2023-01-30T06:13:18.520Z,9.73
2023-01-30T06:15:48.900Z,9.73
2023-01-30T06:18:19.186Z,10.80
2023-01-30T06:20:51.235Z,11.87
2023-01-30T06:23:24.119Z,10.70
2023-01-30T06:25:55.588Z,10.57
2023-01-30T06:28:26.765Z,11.23
2023-01-30T06:30:57.436Z,11.43
2023-01-30T06:33:27.705Z,10.73
2023-01-30T06:35:58.160Z,12.03
2023-01-30T06:38:33.696Z,11.73
2023-01-30T06:41:03.897Z,10.57
2023-01-30T06:43:34.175Z,11.57
2023-01-30T06:46:04.647Z,12.57
2023-01-30T06:48:35.061Z,10.87
2023-01-30T06:51:05.425Z,12.53
2023-01-30T06:53:38.325Z,11.37
2023-01-30T06:56:08.624Z,11.53
2023-01-30T06:58:39.409Z,11.03
2023-01-30T07:01:09.689Z,11.70
2023-01-30T07:03:39.983Z,10.93
2023-01-30T07:06:10.357Z,9.73
2023-01-30T07:08:44.482Z,10.47
2023-01-30T07:11:14.720Z,10.00
2023-01-30T07:13:45.044Z,10.17
2023-01-30T07:16:15.293Z,10.97
2023-01-30T07:18:45.520Z,9.60
2023-01-30T07:21:15.781Z,10.47
2023-01-30T07:23:50.036Z,9.53
2023-01-30T07:26:20.270Z,11.77
2023-01-30T07:28:50.495Z,9.73
2023-01-30T07:31:20.731Z,11.00
2023-01-30T07:33:51.005Z,8.97
2023-01-30T07:36:21.180Z,10.13
2023-01-30T07:38:54.250Z,9.47
2023-01-30T07:41:24.495Z,9.53
2023-01-30T07:43:54.697Z,9.10
2023-01-30T07:46:24.938Z,8.83
2023-01-30T07:48:55.130Z,9.60
2023-01-30T07:51:25.402Z,8.97
2023-01-30T07:53:58.279Z,7.60
2023-01-30T07:56:28.483Z,9.03
2023-01-30T07:58:59.125Z,8.30
2023-01-30T08:01:29.385Z,9.07
2023-01-30T08:03:59.824Z,8.87
2023-01-30T08:06:30.098Z,6.47
2023-01-30T08:09:02.987Z,7.50
2023-01-30T08:11:33.342Z,7.33
2023-01-30T08:14:03.704Z,7.90
2023-01-30T08:16:34.596Z,8.37
2023-01-30T08:19:04.987Z,7.97
2023-01-30T08:21:35.280Z,7.77
2023-01-30T08:24:08.493Z,19.37
2023-01-30T08:26:38.731Z,11.23
2023-01-30T08:29:09.020Z,17.90
2023-01-30T08:31:39.432Z,10.43
2023-01-30T08:34:09.772Z,7.23
2023-01-30T08:36:40.037Z,7.03
2023-01-30T08:39:12.909Z,5.80
2023-01-30T08:41:43.850Z,6.37
2023-01-30T08:44:14.157Z,14.40
2023-01-30T08:46:44.436Z,12.10
2023-01-30T08:49:14.731Z,7.27
2023-01-30T08:51:44.973Z,10.87
2023-01-30T08:54:17.807Z,9.77
2023-01-30T08:56:48.042Z,7.63
2023-01-30T08:59:18.346Z,6.17
2023-01-30T09:01:48.617Z,8.40
2023-01-30T09:04:18.867Z,6.43
2023-01-30T09:06:49.084Z,8.00
2023-01-30T09:09:21.931Z,9.73
2023-01-30T09:11:52.167Z,8.27
2023-01-30T09:14:22.440Z,10.20
2023-01-30T09:16:55.912Z,8.77
2023-01-30T09:19:26.221Z,12.27
2023-01-30T09:21:57.347Z,9.77
2023-01-30T09:24:29.864Z,11.03
2023-01-30T09:27:00.668Z,8.13
2023-01-30T09:29:31.700Z,8.70
2023-01-30T09:32:02.006Z,8.67
2023-01-30T09:34:32.224Z,6.43
2023-01-30T09:37:04.824Z,8.90
2023-01-30T09:39:37.974Z,7.50
2023-01-30T09:42:37.951Z,7.27
2023-01-30T09:45:33.399Z,10.60
2023-01-30T09:48:13.733Z,7.63
2023-01-30T09:51:04.444Z,12.02
2023-01-30T09:53:46.199Z,8.30
2023-01-30T09:56:18.807Z,8.60
2023-01-30T09:58:53.679Z,8.33
2023-01-30T10:01:30.072Z,7.50
2023-01-30T10:04:16.336Z,7.80
2023-01-30T10:06:56.242Z,7.97
2023-01-30T10:09:36.825Z,7.23
2023-01-30T10:12:28.061Z,7.60
2023-01-30T10:15:20.163Z,8.07
2023-01-30T10:18:05.629Z,7.17
2023-01-30T10:20:46.252Z,6.73
2023-01-30T10:23:44.578Z,6.33
2023-01-30T10:26:19.897Z,6.33
2023-01-30T10:29:07.328Z,5.70
2023-01-30T10:31:44.542Z,6.47
2023-01-30T10:34:19.824Z,7.00
2023-01-30T10:36:55.180Z,5.30
2023-01-30T10:39:31.315Z,6.60
2023-01-30T10:42:07.180Z,5.03
2023-01-30T10:44:40.764Z,5.50
2023-01-30T10:47:29.815Z,6.13
2023-01-30T10:50:17.462Z,4.67
2023-01-30T10:52:55.789Z,3.73
2023-01-30T10:55:37.958Z,3.90
2023-01-30T10:58:17.612Z,4.03
2023-01-30T11:01:00.851Z,4.53
2023-01-30T11:03:38.497Z,3.30
2023-01-30T11:06:11.224Z,4.07
2023-01-30T11:08:41.334Z,3.53
2023-01-30T11:11:29.094Z,3.37
2023-01-30T11:14:07.338Z,3.00
2023-01-30T11:16:49.120Z,3.97
2023-01-30T11:19:22.710Z,3.90
2023-01-30T11:21:55.212Z,3.40
2023-01-30T11:24:31.291Z,3.47
2023-01-30T11:27:13.115Z,3.53
2023-01-30T11:29:43.100Z,3.33
2023-01-30T11:32:23.385Z,3.43
2023-01-30T11:35:14.327Z,4.00
2023-01-30T11:37:46.366Z,3.73
2023-01-30T11:40:28.461Z,4.33
2023-01-30T11:43:05.762Z,3.87
2023-01-30T11:45:41.333Z,4.10
2023-01-30T11:48:33.163Z,3.40
2023-01-30T11:51:12.613Z,3.87
2023-01-30T11:53:45.974Z,3.70
2023-01-30T11:56:21.063Z,3.47
2023-01-30T11:58:58.801Z,4.57
2023-01-30T12:01:31.137Z,3.50
2023-01-30T12:04:04.292Z,4.80
2023-01-30T12:06:36.804Z,4.10
2023-01-30T12:09:08.828Z,3.93
2023-01-30T12:11:47.795Z,3.73
2023-01-30T12:14:40.452Z,3.80
2023-01-30T12:17:19.595Z,4.57
2023-01-30T12:20:03.095Z,4.50
2023-01-30T12:22:41.730Z,3.63
2023-01-30T12:25:16.657Z,4.47
2023-01-30T12:30:36.020Z,4.10
2023-01-30T12:33:09.286Z,4.83
2023-01-30T12:35:56.855Z,10.03
2023-01-30T12:38:44.328Z,5.43
2023-01-30T12:41:27.463Z,4.80
2023-01-30T12:44:21.394Z,5.20
2023-01-30T12:47:01.926Z,6.63
2023-01-30T12:49:45.157Z,4.70
2023-01-30T12:52:41.897Z,5.77
2023-01-30T12:55:25.472Z,4.83
2023-01-30T12:58:02.141Z,4.37
2023-01-30T13:00:44.424Z,4.23
2023-01-30T13:03:32.324Z,5.43
2023-01-30T13:06:13.555Z,6.70
2023-01-30T13:09:03.030Z,7.53
2023-01-30T13:11:50.190Z,6.17
2023-01-30T13:14:29.688Z,9.13
2023-01-30T13:17:21.435Z,8.40
2023-01-30T13:20:00.640Z,13.20
2023-01-30T13:22:38.342Z,5.60
2023-01-30T13:25:25.903Z,8.67
2023-01-30T13:27:58.753Z,6.50
2023-01-30T13:30:30.281Z,5.47
2023-01-30T13:33:03.819Z,6.17
2023-01-30T13:35:37.433Z,9.10
2023-01-30T13:38:10.477Z,10.98
2023-01-30T13:40:46.295Z,7.13
2023-01-30T13:43:21.357Z,12.73
2023-01-30T13:45:54.420Z,7.33
2023-01-30T13:48:38.218Z,4.27
2023-01-30T13:51:24.956Z,8.43
2023-01-30T13:54:01.669Z,9.20
2023-01-30T13:56:43.621Z,10.37
2023-01-30T13:59:25.193Z,5.40
2023-01-30T14:02:20.800Z,9.23
2023-01-30T14:04:55.396Z,4.20
2023-01-30T14:07:30.375Z,4.40
2023-01-30T14:10:17.187Z,4.20
2023-01-30T14:12:52.161Z,4.70
2023-01-30T14:15:29.053Z,4.70
2023-01-30T14:18:06.073Z,4.30
2023-01-30T14:20:37.980Z,5.07
2023-01-30T14:23:21.917Z,5.97
2023-01-30T14:25:53.593Z,5.97
2023-01-30T14:28:54.645Z,6.83
2023-01-30T14:31:58.068Z,7.53
2023-01-30T14:34:50.777Z,6.83
2023-01-30T14:37:58.604Z,6.60
2023-01-30T14:40:40.150Z,6.50
2023-01-30T14:43:42.891Z,7.10
2023-01-30T14:46:54.736Z,6.27
2023-01-30T14:49:35.791Z,4.75
2023-01-30T14:52:06.703Z,6.43
2023-01-30T14:54:51.099Z,5.90
2023-01-30T14:57:27.639Z,5.90
2023-01-30T15:00:15.578Z,4.13
2023-01-30T15:02:53.863Z,5.00
2023-01-30T15:05:31.266Z,4.37
2023-01-30T15:08:07.012Z,4.27
2023-01-30T15:11:00.941Z,4.60
2023-01-30T15:13:47.436Z,5.33
2023-01-30T15:16:40.427Z,3.97
2023-01-30T15:19:34.186Z,3.87
2023-01-30T15:22:16.414Z,4.03
2023-01-30T15:25:15.330Z,3.50
2023-01-30T15:27:59.222Z,4.23
2023-01-30T15:30:44.072Z,3.87
2023-01-30T15:33:30.104Z,3.07
2023-01-30T15:36:21.316Z,3.20
2023-01-30T15:38:59.626Z,3.03
2023-01-30T15:41:29.949Z,3.87
2023-01-30T15:44:39.130Z,3.50
2023-01-30T15:47:28.767Z,4.03
2023-01-30T15:50:02.649Z,3.60
2023-01-30T15:52:45.142Z,3.65
2023-01-30T15:55:20.347Z,3.33
2023-01-30T15:57:57.040Z,4.60
2023-01-30T16:00:33.001Z,3.40
2023-01-30T16:03:08.932Z,4.23
2023-01-30T16:05:38.965Z,3.67
2023-01-30T16:08:24.971Z,4.77
2023-01-30T16:10:55.492Z,5.70
2023-01-30T16:13:26.947Z,4.28
2023-01-30T16:16:00.660Z,4.80
2023-01-30T16:18:36.084Z,4.28
2023-01-30T16:21:08.222Z,4.57
2023-01-30T16:23:44.392Z,4.93
2023-01-30T16:26:21.887Z,5.10
2023-01-30T16:28:53.848Z,4.63
2023-01-30T16:31:26.106Z,5.13
2023-01-30T16:33:56.224Z,4.80
2023-01-30T16:36:35.690Z,5.30
2023-01-30T16:39:31.238Z,5.47
2023-01-30T16:42:02.544Z,6.43
2023-01-30T16:44:33.437Z,5.00
2023-01-30T16:47:06.017Z,5.70
2023-01-30T16:49:45.468Z,6.07
2023-01-30T16:52:23.499Z,5.30
2023-01-30T16:54:58.843Z,6.13
2023-01-30T16:57:36.435Z,6.07
2023-01-30T17:00:10.293Z,5.07
2023-01-30T17:02:43.520Z,5.25
2023-01-30T17:05:24.857Z,5.00
2023-01-30T17:07:56.574Z,4.93
2023-01-30T17:11:02.627Z,4.77
2023-01-30T17:13:41.681Z,4.17
2023-01-30T17:16:30.063Z,5.53
2023-01-30T17:19:01.061Z,5.37
2023-01-30T17:21:34.084Z,5.70
2023-01-30T17:24:06.280Z,5.40
2023-01-30T17:26:38.379Z,5.43
2023-01-30T17:29:23.367Z,4.72
2023-01-30T17:31:55.224Z,5.82
2023-01-30T17:34:27.831Z,4.70
2023-01-30T17:36:58.763Z,5.00
2023-01-30T17:39:29.081Z,4.80
2023-01-30T17:41:59.314Z,4.77
2023-01-30T17:44:31.837Z,4.93
2023-01-30T17:47:01.900Z,5.20
2023-01-30T17:49:32.150Z,5.40
2023-01-30T17:52:02.200Z,5.07
2023-01-30T17:54:32.647Z,4.57
2023-01-30T17:57:04.944Z,5.33
2023-01-30T17:59:37.653Z,4.70
2023-01-30T18:02:07.943Z,5.20
2023-01-30T18:04:40.027Z,4.80
2023-01-30T18:07:14.178Z,4.90
2023-01-30T18:09:44.105Z,5.28
2023-01-30T18:12:14.126Z,4.63
2023-01-30T18:14:46.626Z,5.23
2023-01-30T18:17:16.750Z,4.90
2023-01-30T18:19:46.629Z,4.77
2023-01-30T18:22:16.616Z,5.20
2023-01-30T18:24:46.615Z,4.87
2023-01-30T18:27:16.618Z,6.03
2023-01-30T18:29:49.325Z,5.13
2023-01-30T18:32:19.206Z,5.37
2023-01-30T18:34:49.091Z,4.73
2023-01-30T18:37:18.995Z,4.17
2023-01-30T18:39:48.879Z,4.33
2023-01-30T18:42:18.849Z,5.10
2023-01-30T18:44:51.422Z,5.23
2023-01-30T18:47:21.842Z,5.20
2023-01-30T18:49:52.032Z,4.10
2023-01-30T18:52:22.171Z,3.37
2023-01-30T18:54:52.547Z,4.00
2023-01-30T18:57:22.457Z,3.85
2023-01-30T18:59:54.923Z,4.33
2023-01-30T19:02:24.937Z,3.27
2023-01-30T19:04:54.912Z,3.00
2023-01-30T19:07:24.986Z,3.83
2023-01-30T19:09:54.939Z,3.73
2023-01-30T19:12:37.722Z,3.75
2023-01-30T19:15:10.965Z,4.00
2023-01-30T19:17:40.922Z,2.77
2023-01-30T19:20:13.255Z,3.33
2023-01-30T19:22:43.212Z,3.28
2023-01-30T19:25:13.273Z,3.13
2023-01-30T19:27:44.220Z,3.30
2023-01-30T19:30:18.317Z,3.20
2023-01-30T19:32:48.918Z,3.35
2023-01-30T19:35:19.265Z,2.90
2023-01-30T19:37:49.460Z,3.57
2023-01-30T19:40:20.183Z,3.70
2023-01-30T19:42:54.639Z,3.90
2023-01-30T19:45:30.337Z,3.90
2023-01-30T19:48:00.344Z,5.13
2023-01-30T19:50:30.389Z,3.53
2023-01-30T19:53:00.403Z,3.70
2023-01-30T19:55:30.362Z,5.07
2023-01-30T19:58:00.421Z,4.57
2023-01-30T20:00:33.001Z,3.73
2023-01-30T20:03:03.107Z,6.07
2023-01-30T20:05:33.005Z,5.00
2023-01-30T20:08:03.207Z,4.28
2023-01-30T20:10:33.118Z,5.17
2023-01-30T20:13:04.101Z,5.67
2023-01-30T20:15:36.786Z,4.93
2023-01-30T20:18:07.125Z,5.13
2023-01-30T20:20:37.123Z,6.30
2023-01-30T20:23:07.078Z,5.37
2023-01-30T20:25:38.493Z,4.93
2023-01-30T20:28:08.801Z,5.20
2023-01-30T20:30:41.842Z,5.00
2023-01-30T20:33:12.248Z,6.00
2023-01-30T20:35:42.141Z,5.13
2023-01-30T20:38:12.497Z,6.93
2023-01-30T20:40:42.742Z,7.25
2023-01-30T20:43:12.652Z,5.93
2023-01-30T20:45:45.124Z,5.37
2023-01-30T20:48:15.048Z,5.85
2023-01-30T20:50:45.124Z,4.87
2023-01-30T20:53:15.621Z,5.47
2023-01-30T20:55:45.717Z,5.83
2023-01-30T20:58:15.615Z,5.63
2023-01-30T21:00:48.204Z,5.47
2023-01-30T21:03:18.161Z,5.85
2023-01-30T21:05:48.592Z,5.43
2023-01-30T21:08:18.598Z,5.50
2023-01-30T21:10:48.556Z,5.20
2023-01-30T21:13:18.556Z,6.35
2023-01-30T21:15:51.134Z,6.10
2023-01-30T21:18:21.029Z,5.53
2023-01-30T21:20:52.243Z,5.77
2023-01-30T21:23:22.318Z,5.60
2023-01-30T21:25:52.600Z,6.53
2023-01-30T21:28:22.849Z,5.50
2023-01-30T21:30:55.521Z,5.93
2023-01-30T21:33:25.564Z,5.67
2023-01-30T21:35:55.527Z,5.60
2023-01-30T21:38:38.002Z,5.75
2023-01-30T21:41:20.566Z,4.40
2023-01-30T21:43:50.974Z,5.57
2023-01-30T21:46:23.464Z,4.88
2023-01-30T21:48:53.554Z,4.57
2023-01-30T21:51:25.313Z,4.20
2023-01-30T21:53:56.062Z,5.03
2023-01-30T21:56:26.398Z,5.00
2023-01-30T21:58:58.653Z,4.82
2023-01-30T22:01:32.218Z,4.00
2023-01-30T22:04:02.717Z,3.97
2023-01-30T22:06:32.769Z,5.13
2023-01-30T22:09:04.194Z,5.07
2023-01-30T22:11:34.637Z,5.80
2023-01-30T22:14:04.587Z,4.65
2023-01-30T22:16:37.405Z,5.13
2023-01-30T22:19:07.778Z,5.27
2023-01-30T22:21:40.116Z,5.80
2023-01-30T22:24:12.096Z,4.83
2023-01-30T22:26:42.099Z,4.30
2023-01-30T22:29:12.234Z,4.77
2023-01-30T22:31:45.168Z,4.68
2023-01-30T22:34:15.225Z,4.00
2023-01-30T22:36:45.247Z,4.63
2023-01-30T22:39:15.206Z,4.17
2023-01-30T22:41:45.082Z,4.13
2023-01-30T22:44:15.005Z,4.32
2023-01-30T22:46:47.549Z,4.30
2023-01-30T22:49:17.517Z,4.33
2023-01-30T22:51:47.491Z,5.13
2023-01-30T22:54:18.876Z,4.67
2023-01-30T22:56:51.506Z,4.20
2023-01-30T22:59:21.837Z,5.20
2023-01-30T23:01:54.379Z,4.75
2023-01-30T23:04:26.454Z,4.53
2023-01-30T23:06:56.494Z,4.70
2023-01-30T23:09:26.901Z,5.67
2023-01-30T23:12:11.583Z,3.97
2023-01-30T23:14:43.026Z,4.85
2023-01-30T23:17:28.213Z,4.85
2023-01-30T23:19:58.983Z,4.70
2023-01-30T23:22:29.021Z,4.80
2023-01-30T23:24:58.925Z,5.97
2023-01-30T23:27:28.990Z,5.03
2023-01-30T23:29:58.930Z,5.57
2023-01-30T23:32:31.526Z,5.17
2023-01-30T23:35:01.560Z,4.73
2023-01-30T23:37:43.735Z,4.67
2023-01-30T23:40:14.940Z,4.47
2023-01-30T23:42:44.981Z,5.07
2023-01-30T23:45:14.963Z,5.53
2023-01-30T23:47:47.508Z,4.10
2023-01-30T23:50:17.678Z,5.33
2023-01-30T23:52:47.853Z,4.68
2023-01-30T23:55:18.675Z,4.15
2023-01-30T23:57:48.756Z,5.50
